Time;durP1;ratioP1;P1;durP2;ratioP2;P2;SDS_P1;SDS_P2;PMS_P1;PMS_P2;Temp;Humidity;BMP_temperature;BMP_pressure;BME280_temperature;BME280_humidity;BME280_pressure;Samples;Min_cycle;Max_cycle;Signal;HPM_P1;HPM_P2
2021/05/14 00:00:58;;;;;;;0.40;0.30;;;;;;;11.77;94.84;99392.78;4991812;28;20543;-53
2021/05/14 00:03:25;;;;;;;0.30;0.20;;;;;;;11.46;95.48;99395.16;4991842;28;20964;-53
2021/05/14 00:05:51;;;;;;;0.30;0.20;;;;;;;11.85;95.35;99395.13;4991677;28;20934;-53
2021/05/14 00:08:18;;;;;;;0.30;0.20;;;;;;;11.54;94.38;99395.69;4991917;28;20457;-53
2021/05/14 00:10:45;;;;;;;0.30;0.20;;;;;;;11.56;94.54;99391.16;4991860;28;20449;-53
2021/05/14 00:13:12;;;;;;;0.30;0.20;;;;;;;12.12;91.34;99393.78;4991827;28;20871;-53
2021/05/14 00:15:39;;;;;;;0.30;0.20;;;;;;;11.77;91.83;99397.25;4992801;28;20890;-53
2021/05/14 00:18:06;;;;;;;0.30;0.20;;;;;;;11.62;93.26;99385.53;4995547;28;20491;-53
2021/05/14 00:20:33;;;;;;;0.30;0.20;;;;;;;11.84;90.60;99383.59;4995295;28;20489;-53
2021/05/14 00:22:59;;;;;;;0.30;0.20;;;;;;;11.72;92.94;99384.16;4995747;28;20473;-53
2021/05/14 00:25:26;;;;;;;0.30;0.20;;;;;;;11.62;92.84;99390.84;4995555;28;20473;-53
2021/05/14 00:27:53;;;;;;;0.30;0.20;;;;;;;11.64;92.20;99394.28;4996354;28;20460;-53
2021/05/14 00:30:20;;;;;;;0.30;0.20;;;;;;;11.66;91.98;99395.13;4995285;28;20576;-53
2021/05/14 00:32:47;;;;;;;0.30;0.20;;;;;;;11.49;90.80;99400.34;4995212;28;20993;-52
2021/05/14 00:35:14;;;;;;;0.30;0.20;;;;;;;11.65;90.26;99392.50;4994722;28;20528;-53
2021/05/14 00:37:41;;;;;;;0.30;0.20;;;;;;;11.43;90.60;99392.66;4995210;28;20461;-53
2021/05/14 00:40:08;;;;;;;0.30;0.20;;;;;;;11.20;92.71;99388.38;4994762;28;20994;-53
2021/05/14 00:42:35;;;;;;;0.30;0.20;;;;;;;11.21;92.26;99392.78;4995170;28;20450;-53
2021/05/14 00:45:05;;;;;;;0.30;0.20;;;;;;;11.17;92.47;99392.06;4977567;28;20477;-53
2021/05/14 00:47:32;;;;;;;0.30;0.20;;;;;;;11.02;93.41;99394.53;4994985;28;20457;-53
2021/05/14 00:49:58;;;;;;;0.30;0.20;;;;;;;10.89;93.99;99386.25;4994768;28;20938;-53
2021/05/14 00:52:25;;;;;;;0.30;0.20;;;;;;;10.97;93.67;99385.00;4999732;28;20453;-53
2021/05/14 00:54:53;;;;;;;0.30;0.20;;;;;;;10.82;92.88;99385.63;4977327;28;20473;-53
2021/05/14 00:57:20;;;;;;;0.30;0.20;;;;;;;10.63;94.63;99390.03;4977847;28;20453;-53
2021/05/14 00:59:48;;;;;;;0.30;0.20;;;;;;;10.55;96.06;99385.09;4994577;28;21389;-53
2021/05/14 01:02:17;;;;;;;0.30;0.20;;;;;;;10.45;96.26;99380.22;4994596;28;20543;-53
2021/05/14 01:04:44;;;;;;;0.30;0.20;;;;;;;10.56;96.05;99388.59;4977447;28;20473;-53
2021/05/14 01:07:12;;;;;;;0.30;0.20;;;;;;;10.18;97.43;99380.41;4994659;28;20801;-53
2021/05/14 01:09:40;;;;;;;0.30;0.20;;;;;;;10.33;97.32;99384.25;4994362;28;20453;-53
2021/05/14 01:12:10;;;;;;;0.30;0.20;;;;;;;10.23;97.61;99381.09;4995256;28;20500;-53
2021/05/14 01:14:40;;;;;;;0.30;0.20;;;;;;;10.28;98.16;99379.16;4978296;28;20469;-53
2021/05/14 01:17:06;;;;;;;0.30;0.20;;;;;;;10.11;98.26;99373.63;4977889;28;20512;-53
2021/05/14 01:19:33;;;;;;;0.30;0.20;;;;;;;10.07;98.03;99378.19;4994173;28;20453;-53
2021/05/14 01:22:03;;;;;;;0.30;0.20;;;;;;;9.95;98.45;99388.44;4994030;28;20567;-53
2021/05/14 01:24:31;;;;;;;0.30;0.20;;;;;;;9.79;99.20;99381.09;4994038;28;20477;-53
2021/05/14 01:26:58;;;;;;;0.30;0.20;;;;;;;9.77;98.80;99388.28;4993082;28;20454;-53
2021/05/14 01:29:25;;;;;;;0.30;0.20;;;;;;;9.45;100.00;99386.00;4981168;28;20927;-53
2021/05/14 01:31:52;;;;;;;0.30;0.20;;;;;;;9.48;100.00;99391.22;4994100;28;20450;-53
2021/05/14 01:34:19;;;;;;;0.30;0.20;;;;;;;9.55;100.00;99391.81;4993989;28;20482;-53
2021/05/14 01:36:45;;;;;;;0.30;0.20;;;;;;;9.52;100.00;99389.28;4993841;28;20508;-53
2021/05/14 01:39:17;;;;;;;0.30;0.20;;;;;;;9.34;100.00;99394.38;4993952;28;20458;-53
2021/05/14 01:41:43;;;;;;;0.30;0.20;;;;;;;9.19;100.00;99382.56;4993863;28;20493;-53
2021/05/14 01:44:11;;;;;;;0.30;0.20;;;;;;;9.39;100.00;99383.59;4993568;28;21010;-53
2021/05/14 01:46:37;;;;;;;0.30;0.20;;;;;;;9.40;100.00;99382.66;4993982;28;20438;-53
2021/05/14 01:49:04;;;;;;;1.53;1.43;;;;;;;9.35;100.00;99387.28;4993892;28;20553;-53
2021/05/14 01:51:31;;;;;;;0.30;0.20;;;;;;;9.36;100.00;99378.41;4998308;28;20459;-53
2021/05/14 01:53:58;;;;;;;0.40;0.33;;;;;;;9.11;100.00;99382.00;4993713;28;20449;-53
2021/05/14 01:56:24;;;;;;;0.30;0.20;;;;;;;9.16;100.00;99381.81;4993800;28;20449;-53
2021/05/14 01:58:52;;;;;;;0.40;0.30;;;;;;;9.25;100.00;99385.91;4993726;28;20516;-53
2021/05/14 02:01:19;;;;;;;0.30;0.20;;;;;;;9.23;100.00;99385.97;4994555;28;20516;-53
2021/05/14 02:03:46;;;;;;;0.30;0.20;;;;;;;9.26;100.00;99390.28;4993566;28;21046;-53
2021/05/14 02:06:12;;;;;;;0.30;0.20;;;;;;;9.13;100.00;99393.41;4993569;28;20524;-53
2021/05/14 02:08:39;;;;;;;0.30;0.20;;;;;;;9.13;100.00;99385.44;4993474;28;20449;-53
2021/05/14 02:11:10;;;;;;;0.30;0.20;;;;;;;9.12;100.00;99381.06;4993176;28;20450;-53
2021/05/14 02:13:41;;;;;;;0.30;0.20;;;;;;;9.09;100.00;99383.84;4993378;28;21001;-53
2021/05/14 02:16:09;;;;;;;0.30;0.20;;;;;;;8.90;100.00;99388.06;4993345;28;20454;-53
2021/05/14 02:18:37;;;;;;;0.30;0.20;;;;;;;8.87;100.00;99388.19;4993172;28;20545;-53
2021/05/14 02:21:05;;;;;;;0.30;0.20;;;;;;;8.99;100.00;99386.88;4975936;28;20552;-53
2021/05/14 02:23:32;;;;;;;0.30;0.20;;;;;;;8.77;100.00;99382.38;4993301;28;20477;-53
2021/05/14 02:25:59;;;;;;;0.30;0.20;;;;;;;8.71;100.00;99390.53;4993233;28;20480;-53
2021/05/14 02:28:26;;;;;;;0.30;0.20;;;;;;;8.57;100.00;99392.78;4993456;28;20453;-53
2021/05/14 02:30:52;;;;;;;0.30;0.20;;;;;;;8.74;100.00;99389.53;4992878;28;20504;-53
2021/05/14 02:33:19;;;;;;;0.30;0.20;;;;;;;8.62;100.00;99385.53;4993102;28;20461;-53
2021/05/14 02:35:46;;;;;;;0.30;0.20;;;;;;;8.55;100.00;99382.25;4993177;28;20515;-53
2021/05/14 02:38:13;;;;;;;0.30;0.20;;;;;;;8.57;100.00;99391.00;4992821;28;20529;-53
2021/05/14 02:40:40;;;;;;;0.30;0.20;;;;;;;8.66;100.00;99394.25;4993114;28;20489;-53
2021/05/14 02:43:06;;;;;;;0.30;0.20;;;;;;;8.73;100.00;99391.31;4975806;28;20457;-53
2021/05/14 02:45:33;;;;;;;0.30;0.20;;;;;;;9.21;100.00;99395.78;4993588;28;20474;-54
2021/05/14 02:48:00;;;;;;;0.30;0.20;;;;;;;8.58;100.00;99392.72;4993485;28;20774;-54
2021/05/14 02:50:27;;;;;;;0.30;0.20;;;;;;;8.58;100.00;99395.38;4992901;28;20453;-54
2021/05/14 02:52:53;;;;;;;0.30;0.20;;;;;;;8.69;100.00;99394.16;4997279;28;20519;-54
2021/05/14 02:55:20;;;;;;;0.30;0.20;;;;;;;8.66;100.00;99395.13;4992848;28;20898;-54
2021/05/14 02:57:47;;;;;;;0.30;0.20;;;;;;;8.43;100.00;99384.47;4992806;28;20461;-54
2021/05/14 03:00:14;;;;;;;0.30;0.20;;;;;;;8.38;100.00;99391.72;4992432;28;20461;-54
2021/05/14 03:02:41;;;;;;;0.30;0.20;;;;;;;8.63;100.00;99391.69;4992405;28;20493;-54
2021/05/14 03:05:08;;;;;;;0.30;0.20;;;;;;;8.45;100.00;99388.78;4992323;28;20500;-55
2021/05/14 03:07:35;;;;;;;0.30;0.20;;;;;;;8.39;100.00;99396.94;4992191;28;20536;-54
2021/05/14 03:10:02;;;;;;;0.30;0.20;;;;;;;8.42;100.00;99394.19;4992431;28;20507;-54
2021/05/14 03:12:29;;;;;;;0.30;0.20;;;;;;;8.38;100.00;99395.22;4992301;28;20446;-54
2021/05/14 03:14:56;;;;;;;0.30;0.20;;;;;;;8.49;100.00;99386.88;4974994;28;20469;-54
2021/05/14 03:17:22;;;;;;;0.30;0.20;;;;;;;8.53;100.00;99386.75;4992259;28;20456;-54
2021/05/14 03:19:49;;;;;;;0.30;0.20;;;;;;;8.59;100.00;99389.16;4974860;28;20453;-54
2021/05/14 03:22:16;;;;;;;0.30;0.20;;;;;;;8.72;100.00;99386.09;4991999;28;20906;-54
2021/05/14 03:24:42;;;;;;;0.30;0.20;;;;;;;8.71;100.00;99384.34;4992465;28;20473;-54
2021/05/14 03:27:09;;;;;;;0.30;0.20;;;;;;;8.57;100.00;99391.00;4992330;28;20449;-55
2021/05/14 03:29:40;;;;;;;0.30;0.20;;;;;;;8.73;100.00;99396.63;4992288;28;20492;-54
2021/05/14 03:32:06;;;;;;;0.30;0.20;;;;;;;8.77;100.00;99392.06;4993002;28;20565;-53
2021/05/14 03:34:33;;;;;;;0.30;0.20;;;;;;;8.78;100.00;99388.53;4991735;28;20560;-52
2021/05/14 03:37:00;;;;;;;0.30;0.20;;;;;;;8.97;100.00;99386.06;4992109;28;20458;-52
2021/05/14 03:39:27;;;;;;;0.30;0.20;;;;;;;8.81;100.00;99391.06;4985951;28;21014;-52
2021/05/14 03:42:06;;;;;;;0.30;0.20;;;;;;;8.85;100.00;99382.94;4991881;28;20507;-53
2021/05/14 03:44:33;;;;;;;0.30;0.20;;;;;;;9.02;100.00;99384.97;4991792;28;20476;-53
2021/05/14 03:47:03;;;;;;;0.30;0.20;;;;;;;9.22;100.00;99388.69;4991939;28;20496;-52
2021/05/14 03:49:30;;;;;;;0.30;0.20;;;;;;;9.09;100.00;99383.84;4991887;28;20450;-52
2021/05/14 03:51:57;;;;;;;0.30;0.20;;;;;;;9.22;100.00;99386.91;5000362;28;20454;-52
2021/05/14 03:54:25;;;;;;;0.30;0.20;;;;;;;9.13;100.00;99379.28;4996835;28;20504;-52
2021/05/14 03:56:51;;;;;;;0.30;0.20;;;;;;;9.17;100.00;99384.41;4996927;28;20600;-52
2021/05/14 03:59:18;;;;;;;0.30;0.20;;;;;;;9.31;100.00;99389.19;4996977;28;20500;-53
2021/05/14 04:01:45;;;;;;;0.30;0.20;;;;;;;9.05;100.00;99395.47;4996471;28;20524;-52
2021/05/14 04:04:11;;;;;;;0.30;0.20;;;;;;;9.26;100.00;99390.28;4996814;28;20473;-52
2021/05/14 04:06:38;;;;;;;0.30;0.20;;;;;;;9.23;100.00;99385.97;4983691;28;20445;-52
2021/05/14 04:09:05;;;;;;;0.30;0.20;;;;;;;9.33;100.00;99382.06;4996421;28;20938;-52
2021/05/14 04:16:50;;;;;;;0.30;0.20;;;;;;;9.53;100.00;99381.28;4996305;28;20451;-53
2021/05/14 04:19:18;;;;;;;0.30;0.20;;;;;;;9.69;100.00;99379.75;4996472;28;20453;-52
2021/05/14 04:21:44;;;;;;;0.30;0.20;;;;;;;9.62;100.00;99386.22;4996137;28;20498;-52
2021/05/14 04:24:11;;;;;;;0.30;0.20;;;;;;;9.74;100.00;99384.88;4995876;28;20524;-52
2021/05/14 04:26:38;;;;;;;0.30;0.20;;;;;;;9.82;100.00;99373.94;4996279;28;20453;-52
2021/05/14 04:29:05;;;;;;;0.30;0.20;;;;;;;9.95;100.00;99381.34;4996088;28;20512;-52
2021/05/14 04:31:32;;;;;;;0.30;0.20;;;;;;;10.08;100.00;99373.75;4996223;28;20445;-52
2021/05/14 04:33:58;;;;;;;0.30;0.20;;;;;;;10.00;100.00;99374.06;4995848;28;20463;-53
2021/05/14 04:36:25;;;;;;;0.30;0.20;;;;;;;10.11;100.00;99381.59;4996103;28;20453;-53
2021/05/14 04:38:52;;;;;;;0.30;0.20;;;;;;;10.28;100.00;99378.25;4996145;28;20468;-52
2021/05/14 04:41:18;;;;;;;0.30;0.20;;;;;;;10.34;100.00;99383.31;4996291;28;20497;-53
2021/05/14 04:43:45;;;;;;;0.30;0.20;;;;;;;10.31;100.00;99381.66;4995766;28;20456;-52
2021/05/14 04:46:11;;;;;;;0.30;0.20;;;;;;;10.43;100.00;99376.78;4995819;28;20488;-53
2021/05/14 04:48:54;;;;;;;0.30;0.20;;;;;;;10.28;100.00;99379.16;4988475;28;20485;-52
2021/05/14 04:51:22;;;;;;;0.30;0.20;;;;;;;10.29;100.00;99380.88;4999513;28;20451;-52
2021/05/14 04:53:48;;;;;;;0.30;0.20;;;;;;;10.38;100.00;99385.78;4995910;28;20515;-52
2021/05/14 04:56:15;;;;;;;0.30;0.20;;;;;;;10.31;100.00;99384.31;4995678;28;20453;-53
2021/05/14 04:58:42;;;;;;;0.30;0.20;;;;;;;10.44;100.00;99387.31;4978226;28;20798;-53
2021/05/14 05:01:12;;;;;;;0.30;0.20;;;;;;;10.54;100.00;99385.97;4994803;28;20943;-53
2021/05/14 05:03:43;;;;;;;0.30;0.20;;;;;;;10.60;100.00;99384.88;4995053;28;20449;-53
2021/05/14 05:06:09;;;;;;;0.30;0.20;;;;;;;10.64;100.00;99391.78;4995576;28;20441;-53
2021/05/14 05:08:36;;;;;;;0.30;0.20;;;;;;;10.57;100.00;99396.50;4995479;28;20819;-53
2021/05/14 05:11:03;;;;;;;0.30;0.20;;;;;;;10.62;100.00;99393.63;4995071;28;20520;-52
2021/05/14 05:13:29;;;;;;;0.30;0.20;;;;;;;10.63;100.00;99392.69;4995870;28;20508;-53
2021/05/14 05:16:01;;;;;;;0.30;0.20;;;;;;;10.59;100.00;99399.09;4995104;28;20474;-53
2021/05/14 05:18:28;;;;;;;0.30;0.20;;;;;;;10.71;100.00;99403.03;4995073;28;20460;-53
2021/05/14 05:20:55;;;;;;;0.30;0.20;;;;;;;10.94;100.00;99401.06;4995411;28;20458;-53
2021/05/14 05:23:22;;;;;;;0.30;0.20;;;;;;;10.90;100.00;99406.59;4995059;28;20835;-53
2021/05/14 05:25:49;;;;;;;0.30;0.20;;;;;;;10.98;100.00;99407.13;4995280;28;20524;-52
2021/05/14 05:28:23;;;;;;;0.30;0.20;;;;;;;10.95;100.00;99410.75;4995338;28;20453;-52
2021/05/14 05:30:50;;;;;;;0.30;0.20;;;;;;;11.16;100.00;99410.75;4995257;28;20453;-52
2021/05/14 05:33:16;;;;;;;0.30;0.20;;;;;;;11.35;99.36;99405.44;4994618;28;20453;-53
2021/05/14 05:35:43;;;;;;;0.30;0.20;;;;;;;11.40;100.00;99412.28;4995023;28;20532;-53
2021/05/14 05:38:22;;;;;;;0.30;0.20;;;;;;;11.46;100.00;99405.81;4995043;28;20460;-52
2021/05/14 05:40:50;;;;;;;0.30;0.20;;;;;;;11.51;100.00;99410.00;4982721;28;20887;-53
2021/05/14 05:43:17;;;;;;;0.30;0.20;;;;;;;11.38;100.00;99419.50;4994730;28;20856;-53
2021/05/14 05:45:45;;;;;;;0.30;0.20;;;;;;;11.50;100.00;99412.72;4994361;28;20477;-53
2021/05/14 05:48:12;;;;;;;0.30;0.20;;;;;;;11.96;97.49;99421.25;4994491;28;20825;-53
2021/05/14 05:50:40;;;;;;;0.30;0.20;;;;;;;11.77;98.54;99422.06;4994613;28;20449;-52
2021/05/14 05:53:11;;;;;;;0.30;0.20;;;;;;;12.07;98.14;99413.59;4994572;28;20821;-53
2021/05/14 05:55:38;;;;;;;0.30;0.20;;;;;;;12.11;96.63;99426.69;4994834;28;20480;-53
2021/05/14 05:58:09;;;;;;;0.30;0.20;;;;;;;12.09;96.69;99423.22;4994455;28;20453;-53
2021/05/14 06:00:36;;;;;;;0.30;0.20;;;;;;;12.15;96.79;99425.59;4994348;28;20508;-53
2021/05/14 06:03:03;;;;;;;0.30;0.20;;;;;;;12.19;96.31;99430.75;4993984;28;21002;-53
2021/05/14 06:05:30;;;;;;;0.30;0.20;;;;;;;12.49;95.73;99423.94;4994481;28;20540;-53
2021/05/14 06:07:57;;;;;;;0.30;0.20;;;;;;;12.46;95.40;99432.06;4994377;28;20504;-53
2021/05/14 06:10:24;;;;;;;0.30;0.20;;;;;;;13.01;95.48;99434.56;4993138;28;20564;-53
2021/05/14 06:12:52;;;;;;;1.70;1.60;;;;;;;12.61;95.32;99438.41;4992584;28;20449;-53
2021/05/14 06:15:18;;;;;;;0.30;0.20;;;;;;;12.70;96.17;99433.47;4994348;28;20477;-53
2021/05/14 06:17:45;;;;;;;0.30;0.20;;;;;;;12.91;94.79;99442.19;4994097;28;20515;-53
2021/05/14 06:20:16;;;;;;;0.30;0.20;;;;;;;12.72;94.30;99444.94;4994395;28;20457;-53
2021/05/14 06:22:43;;;;;;;0.30;0.20;;;;;;;12.99;94.99;99445.31;4994283;28;20564;-53
2021/05/14 06:25:10;;;;;;;0.30;0.20;;;;;;;12.89;94.14;99441.44;4993871;28;20856;-53
2021/05/14 06:27:37;;;;;;;0.30;0.20;;;;;;;12.88;94.86;99441.47;4976880;28;20828;-53
2021/05/14 06:30:05;;;;;;;0.30;0.20;;;;;;;12.91;93.80;99444.88;4993765;28;21013;-53
2021/05/14 06:32:33;;;;;;;0.30;0.20;;;;;;;12.95;93.98;99443.75;4993954;28;20445;-53
2021/05/14 06:34:59;;;;;;;0.30;0.20;;;;;;;13.10;93.27;99449.25;4993769;28;20470;-53
2021/05/14 06:37:26;;;;;;;0.40;0.30;;;;;;;13.43;93.70;99454.63;4993811;28;20454;-53
2021/05/14 06:39:53;;;;;;;0.30;0.20;;;;;;;13.29;93.26;99453.56;4993486;28;20500;-53
2021/05/14 06:42:19;;;;;;;0.30;0.20;;;;;;;13.44;92.45;99443.88;4993957;28;20997;-53
2021/05/14 06:44:47;;;;;;;0.30;0.20;;;;;;;13.72;92.29;99451.25;4994062;28;21077;-53
2021/05/14 06:47:14;;;;;;;0.40;0.30;;;;;;;14.10;90.80;99450.91;4993558;28;20445;-53
2021/05/14 06:49:41;;;;;;;0.30;0.20;;;;;;;14.43;89.60;99453.47;4993503;28;20963;-53
2021/05/14 06:52:07;;;;;;;0.30;0.20;;;;;;;13.96;89.27;99451.69;4997406;28;20452;-53
2021/05/14 06:54:34;;;;;;;0.30;0.20;;;;;;;13.65;90.75;99452.50;4976286;28;20473;-53
2021/05/14 06:57:02;;;;;;;0.30;0.20;;;;;;;13.97;89.56;99447.19;4993647;28;20453;-53
2021/05/14 06:59:28;;;;;;;0.30;0.20;;;;;;;14.07;89.84;99449.28;4993564;28;20508;-53
2021/05/14 07:01:55;;;;;;;0.30;0.20;;;;;;;14.35;87.23;99445.88;4993300;28;20543;-53
2021/05/14 07:04:23;;;;;;;0.30;0.20;;;;;;;14.80;86.70;99455.75;4993214;28;20470;-53
2021/05/14 07:06:50;;;;;;;0.30;0.20;;;;;;;14.88;84.91;99451.75;4993015;28;20896;-54
2021/05/14 07:09:16;;;;;;;0.30;0.20;;;;;;;14.54;85.64;99447.56;4993774;28;20453;-53
2021/05/14 07:11:43;;;;;;;0.30;0.20;;;;;;;15.02;85.83;99451.78;4993187;28;20453;-53
2021/05/14 07:14:10;;;;;;;0.30;0.20;;;;;;;14.85;86.58;99451.94;4993221;28;21118;-53
2021/05/14 07:16:37;;;;;;;0.40;0.20;;;;;;;15.09;84.68;99447.81;4992722;28;20449;-53
2021/05/14 07:19:04;;;;;;;0.33;0.20;;;;;;;15.07;85.42;99444.31;4993217;28;20453;-53
2021/05/14 07:21:32;;;;;;;0.40;0.20;;;;;;;15.23;84.56;99452.31;4992905;28;20935;-53
2021/05/14 07:23:58;;;;;;;0.40;0.20;;;;;;;14.98;85.54;99450.25;4993334;28;20521;-53
2021/05/14 07:26:28;;;;;;;0.40;0.20;;;;;;;15.20;85.08;99449.81;4992683;28;20465;-53
2021/05/14 07:29:03;;;;;;;0.30;0.20;;;;;;;15.63;84.08;99454.28;4993024;28;20496;-53
2021/05/14 07:31:30;;;;;;;0.40;0.20;;;;;;;15.65;84.74;99454.19;4993110;28;20545;-53
2021/05/14 07:33:57;;;;;;;0.40;0.20;;;;;;;15.22;85.22;99458.63;4992960;28;20453;-53
2021/05/14 07:36:27;;;;;;;0.40;0.20;;;;;;;15.42;83.87;99458.25;4993068;28;20449;-53
2021/05/14 07:38:54;;;;;;;0.40;0.30;;;;;;;15.47;84.53;99452.59;4993130;28;20456;-53
2021/05/14 07:41:21;;;;;;;0.40;0.20;;;;;;;15.66;83.30;99454.09;4993014;28;20465;-51
2021/05/14 07:43:48;;;;;;;0.40;0.20;;;;;;;15.99;81.74;99458.25;4992608;28;20919;-52
2021/05/14 07:46:15;;;;;;;0.40;0.20;;;;;;;16.02;81.64;99463.41;4992707;28;20450;-52
2021/05/14 07:48:41;;;;;;;0.40;0.20;;;;;;;16.06;81.90;99459.59;4992504;28;20481;-52
2021/05/14 07:51:09;;;;;;;0.40;0.20;;;;;;;16.00;83.30;99455.47;4996739;28;20452;-52
2021/05/14 07:53:36;;;;;;;0.40;0.20;;;;;;;16.25;80.65;99456.56;4993211;28;20449;-52
2021/05/14 07:56:03;;;;;;;0.40;0.20;;;;;;;16.13;82.02;99460.03;4993021;28;20481;-52
2021/05/14 07:58:30;;;;;;;0.40;0.20;;;;;;;15.79;82.14;99456.84;4975452;28;20453;-53
2021/05/14 08:00:56;;;;;;;0.40;0.20;;;;;;;16.07;81.84;99457.78;4992794;28;20484;-53
2021/05/14 08:03:23;;;;;;;0.40;0.20;;;;;;;16.33;80.55;99456.06;4979747;28;20489;-52
2021/05/14 08:05:50;;;;;;;0.40;0.20;;;;;;;15.95;80.76;99460.28;4993098;28;20477;-51
2021/05/14 08:08:20;;;;;;;0.40;0.20;;;;;;;16.32;80.30;99462.41;4993132;28;20460;-52
2021/05/14 08:10:47;;;;;;;0.40;0.20;;;;;;;16.65;80.42;99460.16;4992458;28;20857;-54
2021/05/14 08:13:23;;;;;;;0.40;0.20;;;;;;;16.51;80.45;99457.53;4993130;28;20446;-53
2021/05/14 08:15:50;;;;;;;0.40;0.30;;;;;;;17.03;77.85;99462.13;4992189;28;21131;-53
2021/05/14 08:18:21;;;;;;;2.30;2.20;;;;;;;16.46;79.42;99457.00;4992391;28;20458;-53
2021/05/14 08:20:48;;;;;;;0.40;0.20;;;;;;;16.65;79.50;99452.09;4992711;28;20446;-52
2021/05/14 08:23:21;;;;;;;0.40;0.20;;;;;;;16.93;77.51;99447.59;4992691;28;20493;-53
2021/05/14 08:25:49;;;;;;;0.40;0.20;;;;;;;16.54;78.17;99455.50;4992321;28;20465;-54
2021/05/14 08:28:19;;;;;;;0.40;0.20;;;;;;;16.52;79.68;99453.88;4992569;28;20445;-53
2021/05/14 08:30:47;;;;;;;0.40;0.30;;;;;;;16.84;79.32;99455.28;4992652;28;20516;-53
2021/05/14 08:33:15;;;;;;;0.40;0.20;;;;;;;17.15;77.69;99458.59;4992834;28;20454;-53
2021/05/14 08:35:42;;;;;;;0.40;0.30;;;;;;;17.05;78.85;99457.50;4992338;28;20990;-53
2021/05/14 08:38:11;;;;;;;0.40;0.20;;;;;;;17.16;78.19;99460.31;4996572;28;20495;-54
2021/05/14 08:40:39;;;;;;;0.40;0.20;;;;;;;17.39;76.96;99462.25;4983054;28;20453;-54
2021/05/14 08:43:11;;;;;;;0.40;0.20;;;;;;;17.27;75.89;99462.22;4996311;28;21029;-54
2021/05/14 08:45:39;;;;;;;0.40;0.20;;;;;;;17.29;76.65;99461.19;4996462;28;21028;-52
2021/05/14 08:48:17;;;;;;;0.40;0.20;;;;;;;17.24;75.83;99462.44;4995851;28;20849;-52
2021/05/14 08:50:44;;;;;;;0.40;0.20;;;;;;;16.90;78.70;99462.09;4996368;28;20476;-54
2021/05/14 08:53:31;;;;;;;0.40;0.20;;;;;;;17.09;76.32;99457.16;4996982;28;20450;-53
2021/05/14 08:55:59;;;;;;;0.40;0.20;;;;;;;17.26;77.18;99456.00;4978454;28;20472;-52
2021/05/14 08:58:27;;;;;;;0.40;0.20;;;;;;;17.48;75.33;99455.38;4995718;28;20934;-53
2021/05/14 09:00:54;;;;;;;0.40;0.20;;;;;;;17.24;75.68;99455.25;4995714;28;20536;-52
2021/05/14 09:03:24;;;;;;;0.40;0.20;;;;;;;17.08;75.08;99459.97;4983092;28;20527;-52
2021/05/14 09:05:53;;;;;;;0.40;0.20;;;;;;;16.99;74.35;99458.75;4994940;28;20511;-52
2021/05/14 09:08:31;;;;;;;0.40;0.20;;;;;;;17.57;73.93;99457.41;4995740;28;20449;-53
2021/05/14 09:10:59;;;;;;;0.40;0.20;;;;;;;17.39;72.86;99451.50;4995415;28;20837;-52
2021/05/14 09:13:38;;;;;;;0.40;0.20;;;;;;;17.56;71.15;99455.69;4995652;28;20525;-52
2021/05/14 09:16:06;;;;;;;0.40;0.20;;;;;;;17.54;73.17;99451.38;4977759;28;20556;-52
2021/05/14 09:18:33;;;;;;;0.40;0.20;;;;;;;17.96;72.79;99447.50;4995496;28;20457;-52
2021/05/14 09:21:02;;;;;;;0.40;0.20;;;;;;;18.01;71.18;99443.50;4995209;28;20457;-53
2021/05/14 09:23:36;;;;;;;0.40;0.20;;;;;;;17.79;68.12;99447.84;4995333;28;20485;-52
2021/05/14 09:26:13;;;;;;;0.40;0.30;;;;;;;18.27;68.78;99444.28;4995065;28;20473;-53
2021/05/14 09:28:50;;;;;;;0.40;0.20;;;;;;;18.80;69.32;99446.66;4994771;28;20449;-53
2021/05/14 09:31:24;;;;;;;0.40;0.20;;;;;;;19.08;67.91;99440.88;4995544;28;20450;-53
2021/05/14 09:33:56;;;;;;;0.40;0.20;;;;;;;18.67;68.47;99443.19;4995256;28;20473;-53
2021/05/14 09:36:28;;;;;;;0.40;0.20;;;;;;;19.23;67.92;99436.97;4994873;28;20450;-52
2021/05/14 09:39:00;;;;;;;0.40;0.20;;;;;;;18.84;67.56;99427.44;4994639;28;21006;-52
2021/05/14 09:41:44;;;;;;;0.40;0.20;;;;;;;19.49;66.76;99440.31;4995104;28;20441;-52
2021/05/14 09:44:11;;;;;;;0.40;0.20;;;;;;;18.59;66.30;99449.09;4983764;28;20508;-53
2021/05/14 09:46:40;;;;;;;0.40;0.20;;;;;;;18.02;67.81;99441.66;4994593;28;20457;-53
2021/05/14 09:49:08;;;;;;;0.40;0.20;;;;;;;18.49;67.83;99438.13;4993916;28;20457;-53
2021/05/14 09:51:52;;;;;;;0.40;0.20;;;;;;;19.08;67.01;99435.47;4999193;28;20508;-53
2021/05/14 09:54:26;;;;;;;0.40;0.20;;;;;;;18.85;66.40;99429.16;4994664;28;21036;-53
2021/05/14 09:57:40;;;;;;;0.40;0.20;;;;;;;18.82;65.06;99428.53;4994579;28;20833;-52
2021/05/14 10:00:12;;;;;;;0.40;0.20;;;;;;;19.49;65.16;99434.09;4994350;28;20829;-52
2021/05/14 10:02:41;;;;;;;0.40;0.20;;;;;;;19.78;62.31;99429.94;4977008;28;20496;-52
2021/05/14 10:05:13;;;;;;;0.40;0.20;;;;;;;19.32;59.99;99421.06;4994492;28;20469;-52
2021/05/14 10:07:42;;;;;;;0.40;0.20;;;;;;;19.19;63.20;99415.78;4994303;28;20943;-52
2021/05/14 10:10:11;;;;;;;0.40;0.20;;;;;;;19.62;63.20;99412.44;4994540;28;20454;-52
2021/05/14 10:12:39;;;;;;;0.40;0.20;;;;;;;20.07;61.18;99413.22;4994243;28;20837;-52
2021/05/14 10:15:11;;;;;;;0.40;0.20;;;;;;;19.70;61.80;99408.13;4976699;28;20451;-52
2021/05/14 10:17:39;;;;;;;0.40;0.20;;;;;;;19.92;59.77;99415.34;4994207;28;20458;-52
2021/05/14 10:20:13;;;;;;;0.40;0.20;;;;;;;18.96;63.68;99408.63;4994534;28;20461;-52
2021/05/14 10:22:41;;;;;;;0.40;0.20;;;;;;;19.28;63.08;99409.66;4993887;28;20489;-53
2021/05/14 10:25:09;;;;;;;0.40;0.20;;;;;;;19.59;60.78;99412.66;4993640;28;20469;-52
2021/05/14 10:27:47;;;;;;;0.40;0.20;;;;;;;19.86;61.00;99409.56;4994210;28;20532;-52
2021/05/14 10:30:14;;;;;;;0.40;0.20;;;;;;;18.83;63.38;99409.56;4994090;28;20445;-52
2021/05/14 10:32:43;;;;;;;0.50;0.47;;;;;;;18.64;61.90;99411.97;4994223;28;20457;-51
2021/05/14 10:35:12;;;;;;;0.40;0.20;;;;;;;19.32;61.72;99399.50;4993346;28;20572;-52
2021/05/14 10:37:55;;;;;;;0.40;0.20;;;;;;;20.06;60.30;99392.63;4993414;28;20449;-52
2021/05/14 10:40:27;;;;;;;0.40;0.20;;;;;;;19.38;60.10;99396.31;4993710;28;20467;-52
2021/05/14 10:42:58;;;;;;;0.40;0.20;;;;;;;19.52;59.08;99388.84;4993796;28;20497;-51
2021/05/14 10:45:40;;;;;;;0.40;0.20;;;;;;;19.50;58.61;99387.28;4976119;28;21041;-52
2021/05/14 10:48:22;;;;;;;0.40;0.20;;;;;;;19.65;59.62;99379.81;4993387;28;20875;-53
2021/05/14 10:50:57;;;;;;;0.40;0.20;;;;;;;19.34;59.76;99381.38;4994670;28;21016;-52
2021/05/14 10:53:39;;;;;;;0.40;0.20;;;;;;;19.76;59.97;99391.47;4995289;28;20452;-52
2021/05/14 10:56:10;;;;;;;0.40;0.20;;;;;;;20.38;57.85;99393.50;4993254;28;20958;-52
2021/05/14 10:58:46;;;;;;;0.40;0.20;;;;;;;20.50;58.48;99401.59;4976411;28;20533;-52
2021/05/14 11:01:37;;;;;;;0.40;0.20;;;;;;;20.45;58.54;99402.00;4993272;28;20449;-52
2021/05/14 11:04:24;;;;;;;0.40;0.20;;;;;;;19.93;58.58;99400.00;4993392;28;20504;-52
2021/05/14 11:06:54;;;;;;;0.40;0.20;;;;;;;19.48;58.89;99405.41;4982052;28;20511;-51
2021/05/14 11:09:24;;;;;;;0.40;0.20;;;;;;;19.21;59.04;99401.22;4993529;28;20450;-52
2021/05/14 11:12:07;;;;;;;0.40;0.20;;;;;;;18.93;58.88;99415.13;4993546;28;20449;-51
2021/05/14 11:14:41;;;;;;;0.40;0.30;;;;;;;18.49;60.15;99418.44;4992947;28;20879;-51
2021/05/14 11:17:10;;;;;;;0.40;0.20;;;;;;;18.20;61.36;99412.53;4975480;28;20455;-51
2021/05/14 11:19:46;;;;;;;0.40;0.20;;;;;;;17.93;61.71;99424.34;4992950;28;20959;-52
2021/05/14 11:22:15;;;;;;;0.40;0.20;;;;;;;18.40;69.33;99411.09;4976064;28;20459;-50
2021/05/14 11:24:50;;;;;;;0.40;0.20;;;;;;;17.59;68.82;99425.06;4992854;28;20585;-51
2021/05/14 11:27:17;;;;;;;0.40;0.20;;;;;;;18.02;69.16;99426.38;4992888;28;20447;-52
2021/05/14 11:29:45;;;;;;;0.40;0.20;;;;;;;17.81;66.28;99424.38;4993224;28;20461;-51
2021/05/14 11:32:20;;;;;;;0.40;0.20;;;;;;;18.18;61.69;99419.88;4993024;28;20532;-51
2021/05/14 11:34:56;;;;;;;0.40;0.20;;;;;;;18.16;59.63;99416.44;4993076;28;20469;-51
2021/05/14 11:37:55;;;;;;;0.40;0.20;;;;;;;18.76;60.36;99413.69;4993168;28;20441;-52
2021/05/14 11:40:24;;;;;;;0.40;0.20;;;;;;;18.99;54.02;99413.78;4992824;28;20985;-51
2021/05/14 11:42:56;;;;;;;0.40;0.20;;;;;;;19.20;55.14;99402.19;4993017;28;20874;-51
2021/05/14 11:45:28;;;;;;;0.40;0.20;;;;;;;19.80;53.89;99406.41;4992836;28;20531;-51